VOZ830 YSSY-YMML
Flight info
| Callsign | VOZ830 |
|---|---|
| Flight time | 1h 20m |
| Altitude | 38000 |
| Route | DCT WOL H65 LEECE Q29 BOOIN DCT |
| Aircraft | B738/M-SAE3DGHIM1RWZ/LB1 |
Departure
| Time | 2026-04-23 00:20 |
|---|---|
| Airport | Sydney Kingsford Smith International Airport (YSSY) |
Arrival
| Time | 2026-04-23 01:40 |
|---|---|
| Airport | Melbourne Airport (YMML) |
| Time | Latitude | Longitude | Altitude | Speed | Heading |
|---|---|---|---|---|---|
| 2026-04-22 23:55 | -33.93722 | 151.17916 | 29 ft | 0 kts | 58° |
| 2026-04-23 00:03 | -33.93732 | 151.17894 | 29 ft | 4 kts | 71° |
| 2026-04-23 00:03 | -33.93738 | 151.17863 | 29 ft | 4 kts | 78° |
| 2026-04-23 00:04 | -33.93743 | 151.17835 | 29 ft | 1 kts | 78° |
| 2026-04-23 00:04 | -33.93745 | 151.17809 | 29 ft | 4 kts | 112° |
| 2026-04-23 00:04 | -33.93730 | 151.17792 | 29 ft | 4 kts | 177° |
| 2026-04-23 00:04 | -33.93710 | 151.17794 | 29 ft | 0 kts | 193° |
| 2026-04-23 00:05 | -33.93730 | 151.17788 | 29 ft | 4 kts | 194° |
| 2026-04-23 00:05 | -33.93753 | 151.17780 | 29 ft | 1 kts | 194° |
| 2026-04-23 00:05 | -33.93754 | 151.17780 | 29 ft | 0 kts | 194° |
| 2026-04-23 00:09 | -33.93761 | 151.17778 | 29 ft | 4 kts | 194° |
| 2026-04-23 00:09 | -33.93828 | 151.17762 | 29 ft | 15 kts | 180° |
| 2026-04-23 00:09 | -33.93959 | 151.17794 | 28 ft | 24 kts | 167° |
| 2026-04-23 00:10 | -33.94126 | 151.17838 | 28 ft | 24 kts | 168° |
| 2026-04-23 00:10 | -33.94285 | 151.17879 | 29 ft | 23 kts | 168° |
| 2026-04-23 00:10 | -33.94438 | 151.17908 | 29 ft | 22 kts | 184° |
| 2026-04-23 00:10 | -33.94578 | 151.17895 | 29 ft | 20 kts | 167° |
| 2026-04-23 00:11 | -33.94715 | 151.17932 | 29 ft | 20 kts | 168° |
| 2026-04-23 00:11 | -33.94848 | 151.17966 | 29 ft | 19 kts | 168° |
| 2026-04-23 00:11 | -33.94977 | 151.17999 | 29 ft | 19 kts | 167° |
| 2026-04-23 00:11 | -33.95094 | 151.18049 | 29 ft | 18 kts | 128° |
| 2026-04-23 00:12 | -33.95084 | 151.18191 | 29 ft | 17 kts | 78° |
| 2026-04-23 00:12 | -33.95059 | 151.18327 | 29 ft | 16 kts | 77° |
| 2026-04-23 00:12 | -33.95036 | 151.18458 | 29 ft | 16 kts | 77° |
| 2026-04-23 00:12 | -33.95014 | 151.18585 | 29 ft | 15 kts | 71° |
| 2026-04-23 00:13 | -33.94992 | 151.18698 | 28 ft | 8 kts | 78° |
| 2026-04-23 00:13 | -33.94991 | 151.18708 | 28 ft | 0 kts | 78° |
| 2026-04-23 00:18 | -33.94986 | 151.18729 | 27 ft | 6 kts | 77° |
| 2026-04-23 00:18 | -33.94976 | 151.18818 | 27 ft | 14 kts | 104° |
| 2026-04-23 00:19 | -33.95004 | 151.18839 | 23 ft | 0 kts | 167° |
| 2026-04-23 00:19 | -33.95005 | 151.18839 | 27 ft | 1 kts | 167° |
| 2026-04-23 00:19 | -33.95014 | 151.18841 | 24 ft | 3 kts | 168° |
| 2026-04-23 00:19 | -33.95237 | 151.18900 | 22 ft | 67 kts | 168° |
| 2026-04-23 00:20 | -33.95908 | 151.19073 | 27 ft | 126 kts | 168° |
| 2026-04-23 00:20 | -33.96895 | 151.19332 | 246 ft | 152 kts | 167° |
| 2026-04-23 00:20 | -33.97959 | 151.19668 | 741 ft | 165 kts | 151° |
| 2026-04-23 00:20 | -33.98726 | 151.20705 | 1323 ft | 172 kts | 120° |
| 2026-04-23 00:21 | -33.99395 | 151.22050 | 1704 ft | 203 kts | 125° |
| 2026-04-23 00:21 | -34.00231 | 151.23513 | 2078 ft | 222 kts | 126° |
| 2026-04-23 00:21 | -34.01167 | 151.25009 | 2726 ft | 226 kts | 136° |
| 2026-04-23 00:21 | -34.02399 | 151.26210 | 3411 ft | 229 kts | 142° |
| 2026-04-23 00:22 | -34.03662 | 151.27405 | 4168 ft | 231 kts | 141° |
| 2026-04-23 00:22 | -34.04925 | 151.28615 | 4940 ft | 233 kts | 141° |
| 2026-04-23 00:22 | -34.06202 | 151.29848 | 5673 ft | 236 kts | 141° |
| 2026-04-23 00:22 | -34.07515 | 151.31122 | 6248 ft | 253 kts | 141° |
| 2026-04-23 00:23 | -34.08964 | 151.32535 | 6492 ft | 282 kts | 140° |
| 2026-04-23 00:23 | -34.10634 | 151.33989 | 6779 ft | 309 kts | 154° |
| 2026-04-23 00:23 | -34.12767 | 151.34468 | 7522 ft | 321 kts | 182° |
| 2026-04-23 00:23 | -34.14993 | 151.34092 | 8426 ft | 325 kts | 187° |
| 2026-04-23 00:24 | -34.17250 | 151.33678 | 9240 ft | 330 kts | 186° |
| 2026-04-23 00:24 | -34.19503 | 151.33232 | 10000 ft | 338 kts | 192° |
| 2026-04-23 00:24 | -34.21716 | 151.31937 | 10318 ft | 365 kts | 216° |
| 2026-04-23 00:24 | -34.23403 | 151.29625 | 10910 ft | 378 kts | 231° |
| 2026-04-23 00:25 | -34.24971 | 151.27048 | 11668 ft | 381 kts | 230° |
| 2026-04-23 00:25 | -34.26567 | 151.24484 | 12433 ft | 383 kts | 230° |
| 2026-04-23 00:25 | -34.28192 | 151.21916 | 13195 ft | 385 kts | 229° |
| 2026-04-23 00:25 | -34.29836 | 151.19344 | 14003 ft | 384 kts | 229° |
| 2026-04-23 00:26 | -34.31445 | 151.16828 | 15264 ft | 370 kts | 229° |
| 2026-04-23 00:26 | -34.32995 | 151.14413 | 16445 ft | 361 kts | 228° |
| 2026-04-23 00:26 | -34.34544 | 151.12015 | 17186 ft | 364 kts | 228° |
| 2026-04-23 00:26 | -34.36114 | 151.09592 | 17815 ft | 369 kts | 228° |
| 2026-04-23 00:27 | -34.37707 | 151.07136 | 18513 ft | 372 kts | 228° |
| 2026-04-23 00:27 | -34.39311 | 151.04662 | 19275 ft | 374 kts | 228° |
| 2026-04-23 00:27 | -34.40923 | 151.02174 | 19957 ft | 377 kts | 228° |
| 2026-04-23 00:27 | -34.42527 | 150.99695 | 20599 ft | 380 kts | 228° |
| 2026-04-23 00:28 | -34.44163 | 150.97165 | 21217 ft | 383 kts | 228° |
| 2026-04-23 00:28 | -34.45812 | 150.94610 | 21801 ft | 386 kts | 228° |
| 2026-04-23 00:28 | -34.47472 | 150.92038 | 22368 ft | 389 kts | 228° |
| 2026-04-23 00:28 | -34.49148 | 150.89438 | 22896 ft | 392 kts | 229° |
| 2026-04-23 00:29 | -34.50833 | 150.86823 | 23455 ft | 395 kts | 228° |
| 2026-04-23 00:29 | -34.52526 | 150.84195 | 23993 ft | 397 kts | 229° |
| 2026-04-23 00:29 | -34.54231 | 150.81545 | 24478 ft | 400 kts | 229° |
| 2026-04-23 00:29 | -34.55949 | 150.78874 | 24959 ft | 403 kts | 229° |
| 2026-04-23 00:30 | -34.57645 | 150.76145 | 25445 ft | 405 kts | 230° |
| 2026-04-23 00:30 | -34.59320 | 150.73371 | 25933 ft | 407 kts | 231° |
| 2026-04-23 00:30 | -34.60984 | 150.70585 | 26400 ft | 409 kts | 231° |
| 2026-04-23 00:30 | -34.62663 | 150.67772 | 26829 ft | 412 kts | 231° |
| 2026-04-23 00:31 | -34.64351 | 150.64946 | 27262 ft | 414 kts | 231° |
| 2026-04-23 00:31 | -34.66024 | 150.62149 | 27687 ft | 415 kts | 231° |
| 2026-04-23 00:31 | -34.67725 | 150.59310 | 28096 ft | 417 kts | 231° |
| 2026-04-23 00:31 | -34.69438 | 150.56455 | 28486 ft | 419 kts | 231° |
| 2026-04-23 00:32 | -34.71159 | 150.53583 | 28866 ft | 421 kts | 231° |
| 2026-04-23 00:32 | -34.72885 | 150.50703 | 29235 ft | 423 kts | 231° |
| 2026-04-23 00:32 | -34.74618 | 150.47809 | 29582 ft | 424 kts | 231° |
| 2026-04-23 00:32 | -34.76356 | 150.44907 | 29940 ft | 425 kts | 231° |
| 2026-04-23 00:33 | -34.78101 | 150.41987 | 30285 ft | 427 kts | 231° |
| 2026-04-23 00:33 | -34.79848 | 150.39062 | 30574 ft | 429 kts | 231° |
| 2026-04-23 00:33 | -34.81612 | 150.36108 | 30848 ft | 432 kts | 231° |
| 2026-04-23 00:33 | -34.83382 | 150.33142 | 31149 ft | 433 kts | 231° |
| 2026-04-23 00:34 | -34.85154 | 150.30166 | 31482 ft | 434 kts | 231° |
| 2026-04-23 00:34 | -34.86922 | 150.27196 | 31848 ft | 434 kts | 231° |
| 2026-04-23 00:34 | -34.88667 | 150.24260 | 32231 ft | 433 kts | 231° |
| 2026-04-23 00:34 | -34.90432 | 150.21289 | 32591 ft | 432 kts | 231° |
| 2026-04-23 00:35 | -34.92191 | 150.18326 | 32941 ft | 431 kts | 231° |
| 2026-04-23 00:35 | -34.93943 | 150.15375 | 33315 ft | 430 kts | 231° |
| 2026-04-23 00:35 | -34.95693 | 150.12422 | 33705 ft | 428 kts | 231° |
| 2026-04-23 00:35 | -34.97430 | 150.09490 | 34109 ft | 425 kts | 231° |
| 2026-04-23 00:36 | -34.99157 | 150.06571 | 34471 ft | 424 kts | 231° |
| 2026-04-23 00:36 | -35.00880 | 150.03658 | 34762 ft | 424 kts | 232° |
| 2026-04-23 00:36 | -35.02610 | 150.00731 | 35034 ft | 424 kts | 231° |
| 2026-04-23 00:36 | -35.04327 | 149.97824 | 35348 ft | 423 kts | 232° |
| 2026-04-23 00:37 | -35.06052 | 149.94901 | 35539 ft | 425 kts | 232° |
| 2026-04-23 00:37 | -35.07780 | 149.91974 | 35801 ft | 425 kts | 232° |
| 2026-04-23 00:37 | -35.09508 | 149.89045 | 36131 ft | 423 kts | 232° |
| 2026-04-23 00:37 | -35.11201 | 149.86175 | 36444 ft | 421 kts | 232° |
| 2026-04-23 00:38 | -35.12916 | 149.83266 | 36694 ft | 421 kts | 232° |
| 2026-04-23 00:38 | -35.14619 | 149.80374 | 37022 ft | 419 kts | 232° |
| 2026-04-23 00:38 | -35.16313 | 149.77492 | 37439 ft | 414 kts | 232° |
| 2026-04-23 00:38 | -35.17984 | 149.74648 | 37842 ft | 410 kts | 232° |
| 2026-04-23 00:39 | -35.19647 | 149.71814 | 38069 ft | 409 kts | 232° |
| 2026-04-23 00:39 | -35.22988 | 149.66122 | 38337 ft | 413 kts | 232° |
| 2026-04-23 00:39 | -35.24656 | 149.63276 | 38480 ft | 414 kts | 231° |
| 2026-04-23 00:40 | -35.26344 | 149.60394 | 38479 ft | 417 kts | 232° |
| 2026-04-23 00:40 | -35.29705 | 149.54644 | 38468 ft | 410 kts | 232° |
| 2026-04-23 00:41 | -35.33001 | 149.48994 | 38471 ft | 406 kts | 232° |
| 2026-04-23 00:41 | -35.36253 | 149.43411 | 38477 ft | 404 kts | 232° |
| 2026-04-23 00:42 | -35.39508 | 149.37818 | 38478 ft | 403 kts | 232° |
| 2026-04-23 00:42 | -35.42758 | 149.32226 | 38478 ft | 402 kts | 232° |
| 2026-04-23 00:43 | -35.46005 | 149.26626 | 38480 ft | 403 kts | 232° |
| 2026-04-23 00:43 | -35.49264 | 149.20997 | 38481 ft | 405 kts | 232° |
| 2026-04-23 00:44 | -35.52529 | 149.15350 | 38476 ft | 406 kts | 232° |
| 2026-04-23 00:44 | -35.55788 | 149.09702 | 38482 ft | 408 kts | 232° |
| 2026-04-23 00:45 | -35.59079 | 149.03990 | 38485 ft | 410 kts | 232° |
| 2026-04-23 00:45 | -35.62376 | 148.98257 | 38477 ft | 411 kts | 232° |
| 2026-04-23 00:46 | -35.65683 | 148.92500 | 38481 ft | 412 kts | 232° |
| 2026-04-23 00:46 | -35.68992 | 148.86727 | 38484 ft | 413 kts | 232° |
| 2026-04-23 00:47 | -35.72300 | 148.80946 | 38472 ft | 413 kts | 232° |
| 2026-04-23 00:47 | -35.75603 | 148.75163 | 38479 ft | 412 kts | 232° |
| 2026-04-23 00:48 | -35.78339 | 148.70367 | 38471 ft | 412 kts | 232° |
| 2026-04-23 00:48 | -35.82097 | 148.63763 | 38460 ft | 393 kts | 232° |
| 2026-04-23 00:49 | -35.84713 | 148.59166 | 38470 ft | 390 kts | 231° |
| 2026-04-23 00:49 | -35.88322 | 148.52813 | 38480 ft | 388 kts | 232° |
| 2026-04-23 00:50 | -35.90900 | 148.48241 | 38483 ft | 387 kts | 232° |
| 2026-04-23 00:50 | -35.93973 | 148.42775 | 38485 ft | 388 kts | 232° |
| 2026-04-23 00:51 | -35.97029 | 148.37333 | 38490 ft | 388 kts | 232° |
| 2026-04-23 00:51 | -36.00103 | 148.31849 | 38483 ft | 389 kts | 232° |
| 2026-04-23 00:52 | -36.03183 | 148.26342 | 38478 ft | 390 kts | 232° |
| 2026-04-23 00:52 | -36.06277 | 148.20807 | 38470 ft | 391 kts | 232° |
| 2026-04-23 00:53 | -36.09363 | 148.15276 | 38478 ft | 391 kts | 232° |
| 2026-04-23 00:53 | -36.12458 | 148.09726 | 38476 ft | 392 kts | 232° |
| 2026-04-23 00:54 | -36.15563 | 148.04169 | 38464 ft | 393 kts | 232° |
| 2026-04-23 00:54 | -36.18674 | 147.98596 | 38465 ft | 393 kts | 232° |
| 2026-04-23 00:55 | -36.21784 | 147.93015 | 38464 ft | 394 kts | 232° |
| 2026-04-23 00:55 | -36.24893 | 147.87426 | 38469 ft | 393 kts | 232° |
| 2026-04-23 00:56 | -36.27992 | 147.81844 | 38467 ft | 393 kts | 232° |
| 2026-04-23 00:56 | -36.31074 | 147.76285 | 38468 ft | 393 kts | 232° |
| 2026-04-23 00:57 | -36.34164 | 147.70701 | 38471 ft | 392 kts | 232° |
| 2026-04-23 00:57 | -36.37245 | 147.65113 | 38457 ft | 392 kts | 232° |
| 2026-04-23 00:58 | -36.40314 | 147.59535 | 38461 ft | 391 kts | 232° |
| 2026-04-23 00:58 | -36.43375 | 147.53966 | 38458 ft | 390 kts | 232° |
| 2026-04-23 00:59 | -36.46452 | 147.48364 | 37612 ft | 400 kts | 232° |
| 2026-04-23 00:59 | -36.48005 | 147.45528 | 37389 ft | 392 kts | 232° |
| 2026-04-23 00:59 | -36.49504 | 147.42781 | 37559 ft | 373 kts | 232° |
| 2026-04-23 00:59 | -36.50910 | 147.40202 | 37797 ft | 361 kts | 231° |
| 2026-04-23 01:00 | -36.52318 | 147.37624 | 38069 ft | 359 kts | 231° |
| 2026-04-23 01:00 | -36.53724 | 147.35055 | 38249 ft | 360 kts | 231° |
| 2026-04-23 01:00 | -36.55130 | 147.32484 | 38426 ft | 360 kts | 231° |
| 2026-04-23 01:01 | -36.57992 | 147.27244 | 38461 ft | 371 kts | 231° |
| 2026-04-23 01:01 | -36.60933 | 147.21860 | 38463 ft | 381 kts | 231° |
| 2026-04-23 01:02 | -36.63945 | 147.16316 | 38461 ft | 391 kts | 231° |
| 2026-04-23 01:02 | -36.67009 | 147.10657 | 38447 ft | 396 kts | 231° |
| 2026-04-23 01:03 | -36.70085 | 147.04979 | 38446 ft | 393 kts | 231° |
| 2026-04-23 01:03 | -36.73102 | 146.99403 | 38435 ft | 384 kts | 231° |
| 2026-04-23 01:04 | -36.76076 | 146.93917 | 38442 ft | 384 kts | 231° |
| 2026-04-23 01:04 | -36.80541 | 146.85639 | 38392 ft | 380 kts | 231° |
| 2026-04-23 01:05 | -36.82007 | 146.82911 | 38018 ft | 374 kts | 231° |
| 2026-04-23 01:05 | -36.83444 | 146.80237 | 37474 ft | 370 kts | 231° |
| 2026-04-23 01:05 | -36.84874 | 146.77580 | 36865 ft | 368 kts | 231° |
| 2026-04-23 01:05 | -36.86300 | 146.74931 | 36240 ft | 367 kts | 231° |
| 2026-04-23 01:06 | -36.87721 | 146.72287 | 35642 ft | 365 kts | 231° |
| 2026-04-23 01:06 | -36.89149 | 146.69630 | 34740 ft | 371 kts | 231° |
| 2026-04-23 01:06 | -36.90605 | 146.66926 | 33822 ft | 378 kts | 232° |
| 2026-04-23 01:06 | -36.92061 | 146.64207 | 33273 ft | 374 kts | 232° |
| 2026-04-23 01:07 | -36.93497 | 146.61525 | 32765 ft | 368 kts | 232° |
| 2026-04-23 01:07 | -36.94915 | 146.58872 | 32221 ft | 365 kts | 232° |
| 2026-04-23 01:07 | -36.96319 | 146.56247 | 31650 ft | 362 kts | 232° |
| 2026-04-23 01:07 | -36.97693 | 146.53675 | 31069 ft | 360 kts | 232° |
| 2026-04-23 01:08 | -36.99082 | 146.51075 | 30469 ft | 358 kts | 233° |
| 2026-04-23 01:08 | -37.00443 | 146.48522 | 30214 ft | 346 kts | 233° |
| 2026-04-23 01:08 | -37.01751 | 146.46067 | 30157 ft | 329 kts | 233° |
| 2026-04-23 01:08 | -37.02983 | 146.43749 | 30172 ft | 313 kts | 232° |
| 2026-04-23 01:09 | -37.04190 | 146.41487 | 29781 ft | 315 kts | 232° |
| 2026-04-23 01:09 | -37.05425 | 146.39175 | 29167 ft | 323 kts | 232° |
| 2026-04-23 01:09 | -37.06687 | 146.36808 | 28526 ft | 331 kts | 233° |
| 2026-04-23 01:09 | -37.07957 | 146.34418 | 28146 ft | 324 kts | 233° |
| 2026-04-23 01:10 | -37.09182 | 146.32105 | 27865 ft | 316 kts | 233° |
| 2026-04-23 01:10 | -37.10393 | 146.29820 | 27467 ft | 311 kts | 233° |
| 2026-04-23 01:10 | -37.11555 | 146.27617 | 27436 ft | 295 kts | 233° |
| 2026-04-23 01:10 | -37.12668 | 146.25508 | 27344 ft | 287 kts | 233° |
| 2026-04-23 01:11 | -37.13882 | 146.23482 | 26609 ft | 296 kts | 219° |
| 2026-04-23 01:11 | -37.15653 | 146.22176 | 25874 ft | 298 kts | 193° |
| 2026-04-23 01:11 | -37.17652 | 146.22046 | 25690 ft | 284 kts | 168° |
| 2026-04-23 01:11 | -37.19441 | 146.23027 | 25578 ft | 290 kts | 143° |
| 2026-04-23 01:12 | -37.20769 | 146.24997 | 25474 ft | 298 kts | 118° |
| 2026-04-23 01:12 | -37.21298 | 146.27474 | 25443 ft | 301 kts | 97° |
| 2026-04-23 01:12 | -37.21226 | 146.30110 | 25411 ft | 308 kts | 79° |
| 2026-04-23 01:12 | -37.20416 | 146.32623 | 25463 ft | 316 kts | 65° |
| 2026-04-23 01:13 | -37.19329 | 146.35046 | 25428 ft | 319 kts | 63° |
| 2026-04-23 01:13 | -37.18203 | 146.37437 | 25433 ft | 317 kts | 62° |
| 2026-04-23 01:13 | -37.17073 | 146.39819 | 25423 ft | 317 kts | 62° |
| 2026-04-23 01:13 | -37.15913 | 146.42157 | 25431 ft | 316 kts | 59° |
| 2026-04-23 01:14 | -37.14684 | 146.44442 | 25433 ft | 316 kts | 58° |
| 2026-04-23 01:14 | -37.13441 | 146.46714 | 25421 ft | 316 kts | 58° |
| 2026-04-23 01:14 | -37.12195 | 146.48976 | 25435 ft | 315 kts | 58° |
| 2026-04-23 01:14 | -37.10954 | 146.51228 | 25428 ft | 314 kts | 58° |
| 2026-04-23 01:15 | -37.09710 | 146.53489 | 25445 ft | 319 kts | 58° |
| 2026-04-23 01:15 | -37.08419 | 146.55803 | 25447 ft | 328 kts | 53° |
| 2026-04-23 01:15 | -37.06678 | 146.57684 | 25435 ft | 335 kts | 28° |
| 2026-04-23 01:15 | -37.04469 | 146.58581 | 25427 ft | 336 kts | 4° |
| 2026-04-23 01:16 | -37.02186 | 146.58356 | 25430 ft | 334 kts | 340° |
| 2026-04-23 01:16 | -37.00147 | 146.57051 | 25441 ft | 329 kts | 316° |
| 2026-04-23 01:16 | -36.98707 | 146.54896 | 25446 ft | 321 kts | 292° |
| 2026-04-23 01:16 | -36.98088 | 146.52262 | 25440 ft | 314 kts | 268° |
| 2026-04-23 01:17 | -36.98418 | 146.49634 | 25422 ft | 304 kts | 240° |
| 2026-04-23 01:17 | -36.99661 | 146.47562 | 25456 ft | 298 kts | 224° |
| 2026-04-23 01:17 | -37.00992 | 146.45537 | 25445 ft | 305 kts | 230° |
| 2026-04-23 01:17 | -37.02265 | 146.43425 | 25423 ft | 301 kts | 230° |
| 2026-04-23 01:18 | -37.03530 | 146.41397 | 25411 ft | 290 kts | 229° |
| 2026-04-23 01:18 | -37.04762 | 146.39452 | 25414 ft | 281 kts | 229° |
| 2026-04-23 01:18 | -37.05979 | 146.37541 | 25427 ft | 281 kts | 228° |
| 2026-04-23 01:18 | -37.07213 | 146.35606 | 25427 ft | 287 kts | 229° |
| 2026-04-23 01:19 | -37.08427 | 146.33600 | 25427 ft | 291 kts | 232° |
| 2026-04-23 01:19 | -37.09547 | 146.31523 | 25416 ft | 290 kts | 233° |
| 2026-04-23 01:19 | -37.10666 | 146.29383 | 25409 ft | 289 kts | 233° |
| 2026-04-23 01:19 | -37.11746 | 146.27308 | 25402 ft | 287 kts | 233° |
| 2026-04-23 01:20 | -37.12837 | 146.25218 | 25405 ft | 286 kts | 233° |
| 2026-04-23 01:20 | -37.13938 | 146.23114 | 25404 ft | 284 kts | 233° |
| 2026-04-23 01:20 | -37.15020 | 146.21054 | 25408 ft | 283 kts | 233° |
| 2026-04-23 01:20 | -37.16092 | 146.19017 | 25413 ft | 283 kts | 233° |
| 2026-04-23 01:21 | -37.17176 | 146.16956 | 25416 ft | 283 kts | 233° |
| 2026-04-23 01:21 | -37.18272 | 146.14877 | 25436 ft | 291 kts | 233° |
| 2026-04-23 01:21 | -37.19423 | 146.12698 | 25441 ft | 308 kts | 233° |
| 2026-04-23 01:21 | -37.20637 | 146.10398 | 25437 ft | 326 kts | 233° |
| 2026-04-23 01:22 | -37.21922 | 146.07958 | 25429 ft | 342 kts | 234° |
| 2026-04-23 01:22 | -37.23256 | 146.05420 | 25427 ft | 351 kts | 234° |
| 2026-04-23 01:22 | -37.24596 | 146.02863 | 25368 ft | 346 kts | 234° |
| 2026-04-23 01:22 | -37.25902 | 146.00367 | 24961 ft | 341 kts | 234° |
| 2026-04-23 01:23 | -37.27206 | 145.97881 | 24316 ft | 340 kts | 233° |
| 2026-04-23 01:23 | -37.28507 | 145.95399 | 23671 ft | 340 kts | 233° |
| 2026-04-23 01:23 | -37.29806 | 145.92921 | 23066 ft | 339 kts | 234° |
| 2026-04-23 01:23 | -37.31098 | 145.90457 | 22505 ft | 336 kts | 234° |
| 2026-04-23 01:24 | -37.32366 | 145.88048 | 21946 ft | 333 kts | 234° |
| 2026-04-23 01:24 | -37.33641 | 145.85631 | 21379 ft | 330 kts | 234° |
| 2026-04-23 01:24 | -37.34903 | 145.83232 | 20793 ft | 328 kts | 234° |
| 2026-04-23 01:24 | -37.36160 | 145.80846 | 20251 ft | 326 kts | 235° |
| 2026-04-23 01:25 | -37.37407 | 145.78476 | 19671 ft | 324 kts | 235° |
| 2026-04-23 01:25 | -37.38646 | 145.76118 | 19124 ft | 322 kts | 235° |
| 2026-04-23 01:25 | -37.39872 | 145.73786 | 18572 ft | 318 kts | 236° |
| 2026-04-23 01:25 | -37.41075 | 145.71447 | 17924 ft | 318 kts | 236° |
| 2026-04-23 01:26 | -37.42291 | 145.69131 | 17372 ft | 316 kts | 236° |
| 2026-04-23 01:26 | -37.43502 | 145.66840 | 16858 ft | 313 kts | 236° |
| 2026-04-23 01:26 | -37.44699 | 145.64566 | 16337 ft | 311 kts | 236° |
| 2026-04-23 01:26 | -37.45910 | 145.62324 | 15799 ft | 308 kts | 234° |
| 2026-04-23 01:27 | -37.47170 | 145.60149 | 15269 ft | 307 kts | 233° |
| 2026-04-23 01:27 | -37.48438 | 145.57996 | 14737 ft | 305 kts | 233° |
| 2026-04-23 01:27 | -37.49698 | 145.55851 | 14220 ft | 304 kts | 233° |
| 2026-04-23 01:27 | -37.50946 | 145.53711 | 13690 ft | 302 kts | 234° |
| 2026-04-23 01:28 | -37.52182 | 145.51584 | 13184 ft | 300 kts | 234° |
| 2026-04-23 01:28 | -37.53412 | 145.49462 | 12655 ft | 299 kts | 234° |
| 2026-04-23 01:28 | -37.54635 | 145.47345 | 12160 ft | 297 kts | 234° |
| 2026-04-23 01:28 | -37.55845 | 145.45250 | 11657 ft | 295 kts | 234° |
| 2026-04-23 01:29 | -37.57052 | 145.43165 | 11147 ft | 294 kts | 234° |
| 2026-04-23 01:29 | -37.58261 | 145.41077 | 10739 ft | 295 kts | 234° |
| 2026-04-23 01:29 | -37.59455 | 145.39015 | 10376 ft | 288 kts | 234° |
| 2026-04-23 01:29 | -37.60616 | 145.37008 | 9903 ft | 286 kts | 233° |
| 2026-04-23 01:30 | -37.61797 | 145.34966 | 9420 ft | 284 kts | 233° |
| 2026-04-23 01:30 | -37.62951 | 145.32967 | 9068 ft | 278 kts | 232° |
| 2026-04-23 01:30 | -37.64092 | 145.30990 | 8947 ft | 281 kts | 232° |
| 2026-04-23 01:30 | -37.65226 | 145.29024 | 8624 ft | 282 kts | 232° |
| 2026-04-23 01:31 | -37.66378 | 145.27025 | 8156 ft | 280 kts | 232° |
| 2026-04-23 01:31 | -37.67528 | 145.25030 | 7645 ft | 281 kts | 232° |
| 2026-04-23 01:31 | -37.68673 | 145.23040 | 7185 ft | 280 kts | 233° |
| 2026-04-23 01:31 | -37.69812 | 145.21062 | 6730 ft | 277 kts | 232° |
| 2026-04-23 01:32 | -37.70942 | 145.19098 | 6320 ft | 275 kts | 233° |
| 2026-04-23 01:32 | -37.72053 | 145.17169 | 6018 ft | 267 kts | 233° |
| 2026-04-23 01:32 | -37.73125 | 145.15301 | 5736 ft | 258 kts | 233° |
| 2026-04-23 01:32 | -37.74164 | 145.13493 | 5487 ft | 250 kts | 233° |
| 2026-04-23 01:33 | -37.75173 | 145.11733 | 5229 ft | 245 kts | 233° |
| 2026-04-23 01:33 | -37.76179 | 145.09979 | 5004 ft | 248 kts | 233° |
| 2026-04-23 01:33 | -37.76858 | 145.08798 | 4847 ft | 252 kts | 233° |
| 2026-04-23 01:33 | -37.77893 | 145.06991 | 4585 ft | 255 kts | 233° |
| 2026-04-23 01:34 | -37.79251 | 145.04623 | 4248 ft | 246 kts | 234° |
| 2026-04-23 01:34 | -37.80236 | 145.02901 | 4056 ft | 236 kts | 234° |
| 2026-04-23 01:34 | -37.81160 | 145.01268 | 3986 ft | 222 kts | 238° |
| 2026-04-23 01:34 | -37.81686 | 144.99461 | 3854 ft | 221 kts | 260° |
| 2026-04-23 01:35 | -37.81975 | 144.97555 | 3668 ft | 221 kts | 259° |
| 2026-04-23 01:35 | -37.82291 | 144.95658 | 3476 ft | 218 kts | 258° |
| 2026-04-23 01:35 | -37.82503 | 144.94433 | 3345 ft | 212 kts | 259° |
| 2026-04-23 01:35 | -37.82742 | 144.92640 | 3178 ft | 201 kts | 262° |
| 2026-04-23 01:36 | -37.82950 | 144.90941 | 3005 ft | 191 kts | 262° |
| 2026-04-23 01:36 | -37.83199 | 144.88831 | 2797 ft | 174 kts | 270° |
| 2026-04-23 01:36 | -37.83048 | 144.87839 | 2655 ft | 169 kts | 300° |
| 2026-04-23 01:36 | -37.82238 | 144.86811 | 2567 ft | 168 kts | 336° |
| 2026-04-23 01:37 | -37.81099 | 144.86494 | 2452 ft | 167 kts | 352° |
| 2026-04-23 01:37 | -37.79970 | 144.86267 | 2271 ft | 159 kts | 352° |
| 2026-04-23 01:37 | -37.78907 | 144.86056 | 2125 ft | 152 kts | 353° |
| 2026-04-23 01:37 | -37.77866 | 144.85853 | 2006 ft | 151 kts | 353° |
| 2026-04-23 01:38 | -37.76851 | 144.85659 | 1921 ft | 144 kts | 353° |
| 2026-04-23 01:38 | -37.75880 | 144.85472 | 1765 ft | 140 kts | 353° |
| 2026-04-23 01:38 | -37.74928 | 144.85281 | 1567 ft | 139 kts | 353° |
| 2026-04-23 01:38 | -37.73965 | 144.85102 | 1428 ft | 138 kts | 355° |
| 2026-04-23 01:39 | -37.73021 | 144.84928 | 1260 ft | 139 kts | 354° |
| 2026-04-23 01:39 | -37.72070 | 144.84751 | 1083 ft | 137 kts | 354° |
| 2026-04-23 01:39 | -37.71124 | 144.84569 | 913 ft | 137 kts | 354° |
| 2026-04-23 01:39 | -37.70179 | 144.84391 | 729 ft | 137 kts | 354° |
| 2026-04-23 01:40 | -37.69247 | 144.84216 | 541 ft | 139 kts | 352° |
| 2026-04-23 01:40 | -37.68287 | 144.84043 | 357 ft | 138 kts | 353° |
| 2026-04-23 01:40 | -37.67499 | 144.83897 | 366 ft | 84 kts | 351° |
| 2026-04-23 01:40 | -37.67108 | 144.83831 | 382 ft | 40 kts | 359° |
| 2026-04-23 01:41 | -37.66885 | 144.83891 | 389 ft | 18 kts | 24° |
| 2026-04-23 01:41 | -37.66803 | 144.83951 | 391 ft | 13 kts | 72° |
| 2026-04-23 01:41 | -37.66870 | 144.83997 | 388 ft | 13 kts | 172° |
| 2026-04-23 01:41 | -37.66967 | 144.84016 | 385 ft | 15 kts | 171° |
| 2026-04-23 01:42 | -37.67068 | 144.84051 | 382 ft | 16 kts | 135° |
| 2026-04-23 01:42 | -37.67075 | 144.84170 | 382 ft | 14 kts | 81° |
| 2026-04-23 01:42 | -37.67061 | 144.84286 | 384 ft | 13 kts | 81° |
| 2026-04-23 01:42 | -37.67048 | 144.84398 | 386 ft | 13 kts | 82° |
| 2026-04-23 01:43 | -37.67017 | 144.84498 | 388 ft | 12 kts | 84° |
| 2026-04-23 01:43 | -37.67021 | 144.84559 | 389 ft | 6 kts | 134° |
| 2026-04-23 01:43 | -37.67063 | 144.84572 | 388 ft | 5 kts | 171° |
| 2026-04-23 01:43 | -37.67076 | 144.84574 | 388 ft | 0 kts | 172° |